Time;durP1;ratioP1;P1;durP2;ratioP2;P2;SDS_P1;SDS_P2;PMS_P1;PMS_P2;Temp;Humidity;BMP_temperature;BMP_pressure;BME280_temperature;BME280_humidity;BME280_pressure;Samples;Min_cycle;Max_cycle;Signal;HPM_P1;HPM_P2
2023/03/02 00:00:14;;;;;;;;;;;;;;;4.15;100.00;99898.88;5009085;28;19961;-74
2023/03/02 00:02:39;;;;;;;;;;;;;;;4.12;100.00;99890.31;5024335;28;19975;-75
2023/03/02 00:05:07;;;;;;;;;;;;;;;4.17;100.00;99890.03;5023501;28;19925;-73
2023/03/02 00:07:33;;;;;;;;;;;;;;;4.21;100.00;99888.91;5021454;28;20042;-74
2023/03/02 00:09:59;;;;;;;;;;;;;;;4.26;100.00;99897.28;5024008;28;20047;-74
2023/03/02 00:12:29;;;;;;;;;;;;;;;4.23;100.00;99896.66;5025433;28;19921;-74
2023/03/02 00:14:54;;;;;;;;;;;;;;;4.22;100.00;99895.81;5027037;28;20373;-74
2023/03/02 00:17:26;;;;;;;;;;;;;;;4.19;100.00;99906.44;5007377;28;19935;-74
2023/03/02 00:19:52;;;;;;;;;;;;;;;4.18;100.00;99896.94;5024311;28;20123;-73
2023/03/02 00:22:18;;;;;;;;;;;;;;;4.15;100.00;99894.50;5023603;28;20381;-73
2023/03/02 00:24:43;;;;;;;;;;;;;;;4.18;100.00;99902.16;5023054;28;19922;-73
2023/03/02 00:27:08;;;;;;;;;;;;;;;4.25;100.00;99895.63;5026492;28;19931;-74
2023/03/02 00:29:34;;;;;;;;;;;;;;;4.19;100.00;99895.16;5023351;28;19921;-74
2023/03/02 00:31:59;;;;;;;;;;;;;;;4.20;100.00;99892.44;5008871;28;19924;-73
2023/03/02 00:34:24;;;;;;;;;;;;;;;4.18;100.00;99886.50;5003068;28;19932;-73
2023/03/02 00:36:50;;;;;;;;;;;;;;;4.17;100.00;99887.44;5026551;28;20410;-74
2023/03/02 00:39:18;;;;;;;;;;;;;;;4.18;100.00;99883.88;5022286;28;20322;-74
2023/03/02 00:41:44;;;;;;;;;;;;;;;4.20;100.00;99889.84;5026361;28;20012;-73
2023/03/02 00:44:16;;;;;;;;;;;;;;;4.22;100.00;99890.59;5022360;28;20040;-74
2023/03/02 00:46:41;;;;;;;;;;;;;;;4.23;100.00;99887.06;5026339;28;19921;-73
2023/03/02 00:49:07;;;;;;;;;;;;;;;4.22;100.00;99889.75;5004698;28;19922;-73
2023/03/02 00:51:32;;;;;;;;;;;;;;;4.22;100.00;99890.59;5004333;28;20491;-72
2023/03/02 00:54:01;;;;;;;;;;;;;;;4.25;100.00;99894.78;5023044;28;20361;-73
2023/03/02 00:56:27;;;;;;;;;;;;;;;4.29;100.00;99891.06;5009095;28;20027;-72
2023/03/02 00:58:52;;;;;;;;;;;;;;;4.25;100.00;99890.38;5006653;28;20349;-73
2023/03/02 01:01:17;;;;;;;;;;;;;;;4.27;100.00;99888.53;5004379;28;19948;-72
2023/03/02 01:03:46;;;;;;;;;;;;;;;4.30;100.00;99888.31;4988794;28;19921;-73
2023/03/02 01:06:14;;;;;;;;;;;;;;;4.31;100.00;99886.56;5007391;28;20011;-72
2023/03/02 01:08:40;;;;;;;;;;;;;;;4.33;100.00;99882.94;5022142;28;19928;-73
2023/03/02 01:11:11;;;;;;;;;;;;;;;4.27;100.00;99883.31;5004416;28;19997;-73
2023/03/02 01:13:36;;;;;;;;;;;;;;;4.23;100.00;99884.44;5022443;28;20539;-73
2023/03/02 01:16:02;;;;;;;;;;;;;;;4.29;100.00;99881.44;5008369;28;19932;-73
2023/03/02 01:18:28;;;;;;;;;;;;;;;4.31;100.00;99882.16;5021545;28;20013;-72
2023/03/02 01:21:01;;;;;;;;;;;;;;;4.26;100.00;99884.25;5024198;28;19921;-71
2023/03/02 01:23:27;;;;;;;;;;;;;;;4.29;100.00;99876.22;5007509;28;20319;-74
2023/03/02 01:25:52;;;;;;;;;;;;;;;4.22;100.00;99879.31;5025240;28;19943;-74
2023/03/02 01:28:17;;;;;;;;;;;;;;;4.22;100.00;99876.69;5021962;28;19921;-73
2023/03/02 01:30:43;;;;;;;;;;;;;;;4.19;100.00;99874.25;5008530;28;20059;-73
2023/03/02 01:33:08;;;;;;;;;;;;;;;4.12;100.00;99876.44;5005101;28;19960;-73
2023/03/02 01:35:33;;;;;;;;;;;;;;;4.06;100.00;99869.78;5025970;28;19925;-74
2023/03/02 01:37:59;;;;;;;;;;;;;;;4.05;100.00;99868.13;5021092;28;20010;-73
2023/03/02 01:40:24;;;;;;;;;;;;;;;4.05;100.00;99872.50;5025322;28;20012;-73
2023/03/02 01:42:51;;;;;;;;;;;;;;;4.07;100.00;99868.00;5004422;28;19961;-74
2023/03/02 01:45:35;;;;;;;;;;;;;;;4.04;100.00;99868.22;5025466;28;19944;-73
2023/03/02 01:48:01;;;;;;;;;;;;;;;4.04;100.00;99868.22;5021734;28;19955;-74
2023/03/02 01:50:26;;;;;;;;;;;;;;;4.03;100.00;99869.97;5019467;28;19932;-75
2023/03/02 01:52:56;;;;;;;;;;;;;;;4.05;100.00;99868.13;5024570;28;19957;-74
2023/03/02 01:55:23;;;;;;;;;;;;;;;4.14;100.00;99871.94;5005533;28;20294;-75
2023/03/02 01:57:50;;;;;;;;;;;;;;;4.14;100.00;99861.47;5022591;28;19928;-74
2023/03/02 02:00:21;;;;;;;;;;;;;;;4.09;100.00;99864.38;5004061;28;19920;-73
2023/03/02 02:02:47;;;;;;;;;;;;;;;4.08;100.00;99861.88;5003620;28;19948;-74
2023/03/02 02:05:14;;;;;;;;;;;;;;;4.04;100.00;99855.16;5005964;28;19971;-74
2023/03/02 02:07:40;;;;;;;;;;;;;;;4.04;100.00;99860.38;5003145;28;20617;-74
2023/03/02 02:10:06;;;;;;;;;;;;;;;4.07;100.00;99854.97;5004286;28;19968;-74
2023/03/02 02:12:32;;;;;;;;;;;;;;;3.99;100.00;99854.59;5003294;28;19928;-74
2023/03/02 02:14:59;;;;;;;;;;;;;;;3.97;100.00;99854.69;5022818;28;20262;-74
2023/03/02 02:17:25;;;;;;;;;;;;;;;3.97;100.00;99853.84;5006473;28;20007;-73
2023/03/02 02:20:09;;;;;;;;;;;;;;;3.96;100.00;99857.38;5023959;28;20322;-74
2023/03/02 02:22:53;;;;;;;;;;;;;;;4.01;100.00;99852.72;5019928;28;19921;-74
2023/03/02 02:25:31;;;;;;;;;;;;;;;3.96;100.00;99852.16;5023008;28;20425;-73
2023/03/02 02:27:56;;;;;;;;;;;;;;;3.90;100.00;99855.16;4992568;28;19929;-73
2023/03/02 02:30:24;;;;;;;;;;;;;;;3.90;100.00;99855.16;5022003;28;19987;-72
2023/03/02 02:32:51;;;;;;;;;;;;;;;3.91;100.00;99849.84;5024142;28;20353;-73
2023/03/02 02:35:27;;;;;;;;;;;;;;;3.88;100.00;99849.22;5005159;28;19932;-74
2023/03/02 02:37:56;;;;;;;;;;;;;;;3.93;100.00;99857.59;5005322;28;19929;-73
2023/03/02 02:40:37;;;;;;;;;;;;;;;3.97;100.00;99848.63;5005161;28;19922;-72
2023/03/02 02:43:03;;;;;;;;;;;;;;;4.02;100.00;99846.56;5004357;28;20323;-73
2023/03/02 02:45:28;;;;;;;;;;;;;;;4.01;100.00;99852.72;5003680;28;19932;-72
2023/03/02 02:47:54;;;;;;;;;;;;;;;4.05;100.00;99851.63;5022223;28;20365;-72
2023/03/02 02:50:23;;;;;;;;;;;;;;;4.07;100.00;99849.72;5024520;28;19924;-71
2023/03/02 02:52:52;;;;;;;;;;;;;;;4.03;100.00;99853.47;5022242;28;20329;-71
2023/03/02 02:55:20;;;;;;;;;;;;;;;4.04;100.00;99849.94;5021383;28;19918;-71
2023/03/02 02:57:47;;;;;;;;;;;;;;;4.02;100.00;99851.78;5005203;28;19921;-72
2023/03/02 03:00:18;;;;;;;;;;;;;;;4.07;100.00;99854.97;5006312;28;19921;-73
2023/03/02 03:02:46;;;;;;;;;;;;;;;4.11;100.00;99851.25;5023593;28;19940;-73
2023/03/02 03:05:15;;;;;;;;;;;;;;;4.12;100.00;99852.94;5010877;28;20423;-73
2023/03/02 03:07:41;;;;;;;;;;;;;;;4.11;100.00;99851.25;5036743;28;19944;-73
2023/03/02 03:10:14;;;;;;;;;;;;;;;4.05;100.00;99851.63;5006649;28;20370;-73
2023/03/02 03:12:40;;;;;;;;;;;;;;;4.02;100.00;99851.78;5007621;28;20003;-73
2023/03/02 03:15:06;;;;;;;;;;;;;;;4.09;100.00;99858.31;5006689;28;19921;-73
2023/03/02 03:17:32;;;;;;;;;;;;;;;4.15;100.00;99864.94;5024244;28;19925;-73
2023/03/02 03:20:05;;;;;;;;;;;;;;;4.22;100.00;99866.25;5023304;28;20404;-73
2023/03/02 03:22:33;;;;;;;;;;;;;;;4.22;100.00;99864.47;5012865;28;19928;-73
2023/03/02 03:24:59;;;;;;;;;;;;;;;4.22;100.00;99863.63;5035774;28;19929;-73
2023/03/02 03:27:24;;;;;;;;;;;;;;;4.18;100.00;99868.22;5009407;28;19921;-74
2023/03/02 03:29:50;;;;;;;;;;;;;;;4.18;100.00;99862.16;5024319;28;20231;-74
2023/03/02 03:32:18;;;;;;;;;;;;;;;4.12;100.00;99868.59;5009887;28;19924;-74
2023/03/02 03:34:43;;;;;;;;;;;;;;;4.06;100.00;99863.75;5006453;28;19933;-74
2023/03/02 03:37:16;;;;;;;;;;;;;;;4.01;100.00;99871.00;5008294;28;19963;-73
2023/03/02 03:39:42;;;;;;;;;;;;;;;4.01;100.00;99863.16;5025529;28;19932;-73
2023/03/02 03:42:08;;;;;;;;;;;;;;;3.95;100.00;99860.94;5037321;28;20305;-75
2023/03/02 03:44:35;;;;;;;;;;;;;;;3.98;100.00;99871.19;5006940;28;20396;-75
2023/03/02 03:47:00;;;;;;;;;;;;;;;3.93;100.00;99868.88;5027147;28;19921;-74
2023/03/02 03:49:26;;;;;;;;;;;;;;;3.92;100.00;99866.34;5005929;28;20047;-74
2023/03/02 03:51:53;;;;;;;;;;;;;;;3.91;100.00;99864.66;5012298;28;20258;-74
2023/03/02 03:54:18;;;;;;;;;;;;;;;3.90;100.00;99865.59;5023640;28;20055;-74
2023/03/02 03:56:45;;;;;;;;;;;;;;;3.86;100.00;99861.50;5026873;28;20351;-74
2023/03/02 03:59:13;;;;;;;;;;;;;;;3.88;100.00;99876.16;5006428;28;20400;-74
2023/03/02 04:01:55;;;;;;;;;;;;;;;3.83;100.00;99869.53;5003374;28;20293;-75
2023/03/02 04:04:23;;;;;;;;;;;;;;;3.82;100.00;99875.69;5006072;28;20112;-75
2023/03/02 04:06:49;;;;;;;;;;;;;;;3.83;100.00;99867.72;5007997;28;19999;-74
2023/03/02 04:09:18;;;;;;;;;;;;;;;3.85;100.00;99875.47;5007093;28;20008;-74
2023/03/02 04:11:44;;;;;;;;;;;;;;;3.91;100.00;99885.56;5023422;28;19921;-74
2023/03/02 04:14:11;;;;;;;;;;;;;;;3.93;100.00;99879.31;5008267;28;20321;-74
2023/03/02 04:16:37;;;;;;;;;;;;;;;3.99;100.00;99872.88;5040330;28;19921;-74
2023/03/02 04:19:08;;;;;;;;;;;;;;;4.05;100.00;99867.28;5008949;28;19936;-74
2023/03/02 04:21:36;;;;;;;;;;;;;;;4.10;100.00;99876.50;5004086;28;19921;-75
2023/03/02 04:24:02;;;;;;;;;;;;;;;4.14;100.00;99871.94;5022937;28;19921;-74
2023/03/02 04:26:27;;;;;;;;;;;;;;;4.15;100.00;99872.78;5002154;28;19944;-73
2023/03/02 04:28:53;;;;;;;;;;;;;;;4.20;100.00;99876.78;5004858;28;19949;-74
2023/03/02 04:31:19;;;;;;;;;;;;;;;4.23;100.00;99876.59;5001481;28;19918;-74
2023/03/02 04:33:45;;;;;;;;;;;;;;;4.27;100.00;99877.25;5005386;28;20332;-75
2023/03/02 04:36:11;;;;;;;;;;;;;;;4.25;100.00;99874.72;5003242;28;19929;-74
2023/03/02 04:38:37;;;;;;;;;;;;;;;4.21;100.00;99878.47;5005666;28;19971;-74
2023/03/02 04:41:02;;;;;;;;;;;;;;;4.20;100.00;99874.16;5005711;28;20165;-74
2023/03/02 04:43:27;;;;;;;;;;;;;;;4.17;100.00;99866.53;5006113;28;20423;-74
2023/03/02 04:45:53;;;;;;;;;;;;;;;4.20;100.00;99868.94;5004636;28;20270;-73
2023/03/02 04:48:19;;;;;;;;;;;;;;;4.27;100.00;99872.84;5004751;28;20424;-73
2023/03/02 04:50:44;;;;;;;;;;;;;;;4.31;100.00;99873.50;5003153;28;19929;-73
2023/03/02 04:53:11;;;;;;;;;;;;;;;4.35;100.00;99875.84;5005837;28;20266;-73
2023/03/02 04:55:36;;;;;;;;;;;;;;;4.38;100.00;99870.41;5002880;28;19940;-73
2023/03/02 04:58:01;;;;;;;;;;;;;;;4.29;100.00;99871.00;5006961;28;19922;-73
2023/03/02 05:00:27;;;;;;;;;;;;;;;4.27;100.00;99872.03;5002843;28;20330;-74
2023/03/02 05:02:53;;;;;;;;;;;;;;;4.27;100.00;99865.03;5006656;28;20421;-74
2023/03/02 05:05:19;;;;;;;;;;;;;;;4.25;100.00;99872.09;5005205;28;19926;-73
2023/03/02 05:07:45;;;;;;;;;;;;;;;4.24;100.00;99862.59;5005517;28;19927;-73
2023/03/02 05:10:11;;;;;;;;;;;;;;;4.30;100.00;99867.44;5002644;28;20016;-73
2023/03/02 05:12:53;;;;;;;;;;;;;;;4.26;100.00;99871.19;5006161;28;20286;-73
2023/03/02 05:15:22;;;;;;;;;;;;;;;4.22;100.00;99874.06;5002787;28;19921;-73
2023/03/02 05:17:47;;;;;;;;;;;;;;;4.14;100.00;99866.72;5004779;28;19944;-74
2023/03/02 05:20:13;;;;;;;;;;;;;;;4.13;100.00;99870.25;5002810;28;20403;-74
2023/03/02 05:22:38;;;;;;;;;;;;;;;4.17;100.00;99876.97;5005121;28;19925;-74
2023/03/02 05:25:04;;;;;;;;;;;;;;;4.22;100.00;99874.91;5001834;28;19926;-73
2023/03/02 05:27:29;;;;;;;;;;;;;;;4.22;100.00;99868.84;5019806;28;19929;-73
2023/03/02 05:29:55;;;;;;;;;;;;;;;4.26;100.00;99867.72;5022126;28;19944;-74
2023/03/02 05:32:20;;;;;;;;;;;;;;;4.29;100.00;99878.84;5024663;28;20372;-75
2023/03/02 05:34:45;;;;;;;;;;;;;;;4.28;100.00;99869.31;5021876;28;20024;-75
2023/03/02 05:37:11;;;;;;;;;;;;;;;4.25;100.00;99877.31;5007074;28;20004;-74
2023/03/02 05:39:36;;;;;;;;;;;;;;;4.24;100.00;99878.25;5021678;28;20070;-74
2023/03/02 05:42:01;;;;;;;;;;;;;;;4.30;100.00;99879.69;5022591;28;20297;-73
2023/03/02 05:44:27;;;;;;;;;;;;;;;4.31;100.00;99879.56;5020964;28;19982;-72
2023/03/02 05:46:52;;;;;;;;;;;;;;;4.32;100.00;99870.78;5024958;28;19921;-73
2023/03/02 05:49:18;;;;;;;;;;;;;;;4.23;100.00;99887.06;5021254;28;19928;-72
2023/03/02 05:51:43;;;;;;;;;;;;;;;4.29;100.00;99886.69;5025371;28;20015;-72
2023/03/02 05:54:08;;;;;;;;;;;;;;;4.27;100.00;99883.31;5021385;28;19933;-73
2023/03/02 05:56:34;;;;;;;;;;;;;;;4.35;100.00;99885.44;5025791;28;20350;-73
2023/03/02 05:59:01;;;;;;;;;;;;;;;4.32;100.00;99883.84;5023147;28;19925;-73
2023/03/02 06:01:26;;;;;;;;;;;;;;;4.28;100.00;99885.00;5023099;28;19928;-74
2023/03/02 06:03:51;;;;;;;;;;;;;;;4.33;100.00;99890.75;5021663;28;20277;-74
2023/03/02 06:06:17;;;;;;;;;;;;;;;4.34;100.00;99899.44;5007577;28;19920;-74
2023/03/02 06:08:42;;;;;;;;;;;;;;;4.34;100.00;99894.22;5021561;28;19928;-73
2023/03/02 06:11:08;;;;;;;;;;;;;;;4.25;100.00;99890.38;5025458;28;19968;-75
2023/03/02 06:13:34;;;;;;;;;;;;;;;4.19;100.00;99890.75;5021335;28;19925;-73
2023/03/02 06:15:59;;;;;;;;;;;;;;;4.17;100.00;99892.66;5025390;28;20304;-73
2023/03/02 06:18:25;;;;;;;;;;;;;;;4.16;100.00;99898.81;5024568;28;19956;-73
2023/03/02 06:20:50;;;;;;;;;;;;;;;4.19;100.00;99901.22;5024833;28;19921;-73
2023/03/02 06:23:15;;;;;;;;;;;;;;;4.17;100.00;99905.72;5022699;28;19948;-73
2023/03/02 06:25:46;;;;;;;;;;;;;;;4.19;100.00;99901.22;5024231;28;20439;-71
2023/03/02 06:28:12;;;;;;;;;;;;;;;4.16;100.00;99900.56;5004053;28;20020;-72
2023/03/02 06:30:38;;;;;;;;;;;;;;;4.16;100.00;99908.41;5022135;28;20012;-72
2023/03/02 06:33:03;;;;;;;;;;;;;;;4.11;100.00;99919.16;5024497;28;19947;-73
2023/03/02 06:35:28;;;;;;;;;;;;;;;4.21;100.00;99909.81;5020796;28;20774;-70
2023/03/02 06:37:54;;;;;;;;;;;;;;;4.28;100.00;99900.66;5025888;28;19921;-72
2023/03/02 06:40:20;;;;;;;;;;;;;;;4.23;100.00;99907.94;5021676;28;19921;-72
2023/03/02 06:42:45;;;;;;;;;;;;;;;4.34;100.00;99908.13;5029579;28;19928;-72
2023/03/02 06:45:11;;;;;;;;;;;;;;;4.34;100.00;99910.75;5033465;28;19921;-72
2023/03/02 06:47:37;;;;;;;;;;;;;;;4.29;100.00;99907.56;5027822;28;20254;-73
2023/03/02 06:50:03;;;;;;;;;;;;;;;4.29;100.00;99898.91;5027148;28;19943;-73
2023/03/02 06:52:28;;;;;;;;;;;;;;;4.27;100.00;99906.81;5024596;28;19925;-74
2023/03/02 06:54:54;;;;;;;;;;;;;;;4.29;100.00;99912.78;5028023;28;19927;-72
2023/03/02 06:57:19;;;;;;;;;;;;;;;4.30;100.00;99914.44;5009115;28;19921;-73
2023/03/02 06:59:44;;;;;;;;;;;;;;;4.30;100.00;99914.44;5011194;28;19921;-74
2023/03/02 07:02:10;;;;;;;;;;;;;;;4.32;100.00;99912.59;5027195;28;19924;-74
2023/03/02 07:04:36;;;;;;;;;;;;;;;4.32;100.00;99917.81;5023242;28;20384;-76
2023/03/02 07:07:01;;;;;;;;;;;;;;;4.36;100.00;99921.91;5026476;28;20666;-74
2023/03/02 07:09:29;;;;;;;;;;;;;;;4.35;100.00;99922.88;5021885;28;20055;-73
2023/03/02 07:11:55;;;;;;;;;;;;;;;4.29;100.00;99923.25;5026179;28;19921;-74
2023/03/02 07:14:20;;;;;;;;;;;;;;;4.27;100.00;99922.50;5024178;28;19987;-73
2023/03/02 07:16:45;;;;;;;;;;;;;;;4.25;100.00;99921.72;5026844;28;19924;-73
2023/03/02 07:19:12;;;;;;;;;;;;;;;4.31;100.00;99920.50;5022898;28;20004;-73
2023/03/02 07:21:37;;;;;;;;;;;;;;;4.26;100.00;99926.03;5027862;28;20237;-74
2023/03/02 07:24:03;;;;;;;;;;;;;;;4.27;100.00;99925.09;5025175;28;19921;-74
2023/03/02 07:26:28;;;;;;;;;;;;;;;4.26;100.00;99923.41;5009068;28;20008;-74
2023/03/02 07:28:53;;;;;;;;;;;;;;;4.26;100.00;99923.41;5025830;28;19975;-73
2023/03/02 07:31:20;;;;;;;;;;;;;;;4.36;100.00;99923.72;5025650;28;21354;-73
2023/03/02 07:33:46;;;;;;;;;;;;;;;4.42;100.00;99924.16;5024390;28;19976;-73
2023/03/02 07:36:11;;;;;;;;;;;;;;;4.51;100.00;99923.59;5026175;28;19921;-74
2023/03/02 07:38:37;;;;;;;;;;;;;;;4.50;100.00;99924.53;5023992;28;19921;-74
2023/03/02 07:41:06;;;;;;;;;;;;;;;4.48;100.00;99931.59;5026979;28;19979;-74
2023/03/02 07:43:34;;;;;;;;;;;;;;;4.48;100.00;99929.00;5024202;28;19921;-73
2023/03/02 07:45:59;;;;;;;;;;;;;;;4.48;100.00;99929.00;5027117;28;19960;-73
2023/03/02 07:48:25;;;;;;;;;;;;;;;4.48;100.00;99929.00;5024052;28;19960;-74
2023/03/02 07:50:50;;;;;;;;;;;;;;;4.63;100.00;99936.81;5026026;28;19963;-73
2023/03/02 07:53:16;;;;;;;;;;;;;;;4.66;100.00;99931.38;5005430;28;20027;-73
2023/03/02 07:55:41;;;;;;;;;;;;;;;4.73;100.00;99932.69;5023282;28;20403;-74
2023/03/02 07:58:07;;;;;;;;;;;;;;;4.81;100.00;99935.66;5027153;28;19921;-74
2023/03/02 08:00:32;;;;;;;;;;;;;;;4.80;100.00;99934.81;5006333;28;20009;-74
2023/03/02 08:02:58;;;;;;;;;;;;;;;4.76;100.00;99948.19;5026944;28;19925;-74
2023/03/02 08:05:23;;;;;;;;;;;;;;;4.76;100.00;99948.19;5022966;28;19922;-74
2023/03/02 08:07:48;;;;;;;;;;;;;;;4.76;100.00;99948.19;5024838;28;20023;-74
2023/03/02 08:10:14;;;;;;;;;;;;;;;4.79;100.00;99948.84;5030173;28;20036;-74
2023/03/02 08:12:41;;;;;;;;;;;;;;;4.73;100.00;99945.75;5022566;28;20108;-74
2023/03/02 08:15:07;;;;;;;;;;;;;;;4.83;100.00;99946.88;5031549;28;20381;-74
2023/03/02 08:17:32;;;;;;;;;;;;;;;4.82;100.00;99939.97;5011034;28;19932;-74
2023/03/02 08:19:58;;;;;;;;;;;;;;;4.96;100.00;99937.28;5026804;28;20132;-74
2023/03/02 08:22:23;;;;;;;;;;;;;;;5.10;100.00;99934.66;5026206;28;19972;-73
2023/03/02 08:24:48;;;;;;;;;;;;;;;5.18;100.00;99937.63;5022638;28;19934;-73
2023/03/02 08:27:14;;;;;;;;;;;;;;;5.26;100.00;99927.47;5025419;28;19921;-74
2023/03/02 08:29:40;;;;;;;;;;;;;;;5.29;100.00;99926.44;5024322;28;19927;-74
2023/03/02 08:32:05;;;;;;;;;;;;;;;5.40;100.00;99925.75;5026411;28;19917;-73
2023/03/02 08:34:31;;;;;;;;;;;;;;;5.50;100.00;99922.41;5019916;28;19972;-73
2023/03/02 08:36:56;;;;;;;;;;;;;;;5.57;100.00;99928.06;5023169;28;19921;-74
2023/03/02 08:39:22;;;;;;;;;;;;;;;5.48;100.00;99926.09;5026115;28;20290;-75
2023/03/02 08:41:51;;;;;;;;;;;;;;;5.38;100.00;99925.84;5024311;28;19921;-73
2023/03/02 08:44:16;;;;;;;;;;;;;;;5.46;100.00;99917.47;5023502;28;20308;-74
2023/03/02 08:46:42;;;;;;;;;;;;;;;5.55;100.00;99919.47;5026419;28;19975;-75
2023/03/02 08:49:07;;;;;;;;;;;;;;;5.58;100.00;99916.66;5023027;28;19921;-75
2023/03/02 08:51:33;;;;;;;;;;;;;;;5.62;100.00;99912.91;5018492;28;20349;-75
2023/03/02 08:53:58;;;;;;;;;;;;;;;5.70;100.00;99911.44;5020933;28;20380;-74
2023/03/02 08:56:35;;;;;;;;;;;;;;;5.76;100.00;99915.44;5023538;28;19932;-74
2023/03/02 08:59:02;;;;;;;;;;;;;;;5.77;100.00;99912.69;5026588;28;19928;-74
2023/03/02 09:01:29;;;;;;;;;;;;;;;5.74;100.00;99917.31;5024911;28;19987;-74
2023/03/02 09:03:56;;;;;;;;;;;;;;;5.67;100.00;99916.03;5021454;28;20400;-74
2023/03/02 09:06:21;;;;;;;;;;;;;;;5.72;100.00;99908.72;5022198;28;19929;-73
2023/03/02 09:08:48;;;;;;;;;;;;;;;5.85;100.00;99913.97;5022979;28;20294;-75
2023/03/02 09:11:14;;;;;;;;;;;;;;;5.85;100.00;99909.56;5017989;28;20327;-75
2023/03/02 09:13:40;;;;;;;;;;;;;;;5.97;100.00;99915.78;5022149;28;19933;-74
2023/03/02 09:16:07;;;;;;;;;;;;;;;5.99;100.00;99912.13;5025717;28;20296;-74
2023/03/02 09:18:33;;;;;;;;;;;;;;;5.99;100.00;99908.66;5020739;28;19956;-75
2023/03/02 09:20:58;;;;;;;;;;;;;;;5.99;100.00;99906.88;5021490;28;19929;-73
2023/03/02 09:23:24;;;;;;;;;;;;;;;6.00;100.00;99908.56;5020780;28;20389;-74
2023/03/02 09:25:50;;;;;;;;;;;;;;;6.11;100.00;99903.41;5021854;28;19921;-74
2023/03/02 09:28:15;;;;;;;;;;;;;;;6.18;100.00;99907.25;5022568;28;19964;-74
2023/03/02 09:30:41;;;;;;;;;;;;;;;6.23;100.00;99903.50;5022880;28;20602;-74
2023/03/02 09:33:06;;;;;;;;;;;;;;;6.26;100.00;99898.03;5021601;28;20004;-74
2023/03/02 09:35:32;;;;;;;;;;;;;;;6.31;100.00;99899.38;5006494;28;20373;-74
2023/03/02 09:37:57;;;;;;;;;;;;;;;6.41;100.00;99907.47;5021613;28;19940;-74
2023/03/02 09:40:24;;;;;;;;;;;;;;;6.53;100.00;99907.44;5023341;28;19921;-75
2023/03/02 09:43:08;;;;;;;;;;;;;;;6.54;100.00;99901.22;5021888;28;19999;-75
2023/03/02 09:45:38;;;;;;;;;;;;;;;6.61;100.00;99901.63;5021446;28;19925;-74
2023/03/02 09:48:13;;;;;;;;;;;;;;;6.70;100.00;99908.88;5021434;28;19921;-73
2023/03/02 09:50:52;;;;;;;;;;;;;;;6.74;100.00;99905.06;5017691;28;19926;-74
2023/03/02 09:53:30;;;;;;;;;;;;;;;6.74;100.00;99914.72;5023245;28;20334;-74
2023/03/02 09:55:59;;;;;;;;;;;;;;;6.87;100.00;99912.91;5019544;28;20399;-74
2023/03/02 09:58:27;;;;;;;;;;;;;;;6.89;100.00;99913.63;5021965;28;20383;-74
2023/03/02 10:00:52;;;;;;;;;;;;;;;6.89;100.00;99908.38;5004483;28;20024;-74
2023/03/02 10:03:20;;;;;;;;;;;;;;;6.92;100.00;99903.75;5023265;28;20784;-74
2023/03/02 10:05:45;;;;;;;;;;;;;;;7.01;100.00;99911.91;5022359;28;20374;-74
2023/03/02 10:08:22;;;;;;;;;;;;;;;7.09;100.00;99909.53;5020340;28;19921;-74
2023/03/02 10:10:47;;;;;;;;;;;;;;;7.20;100.00;99912.22;5024713;28;19932;-74
2023/03/02 10:13:21;;;;;;;;;;;;;;;7.28;100.00;99917.75;5030270;28;19921;-74
2023/03/02 10:16:05;;;;;;;;;;;;;;;7.38;100.00;99908.22;5027574;28;19932;-74
2023/03/02 10:18:36;;;;;;;;;;;;;;;7.40;100.00;99908.97;5026778;28;20635;-73
2023/03/02 10:21:05;;;;;;;;;;;;;;;7.54;100.00;99905.31;5029280;28;19921;-73
2023/03/02 10:23:30;;;;;;;;;;;;;;;7.69;100.00;99902.38;5023221;28;19979;-74
2023/03/02 10:26:04;;;;;;;;;;;;;;;7.65;100.00;99903.56;5028021;28;19928;-74
2023/03/02 10:28:32;;;;;;;;;;;;;;;7.71;100.00;99903.09;5012548;28;19948;-74
2023/03/02 10:31:09;;;;;;;;;;;;;;;7.81;100.00;99905.84;5029174;28;19929;-72
2023/03/02 10:33:36;;;;;;;;;;;;;;;7.81;100.00;99913.72;5030202;28;19944;-73
2023/03/02 10:36:03;;;;;;;;;;;;;;;7.89;100.00;99910.53;5028129;28;19933;-72
2023/03/02 10:38:30;;;;;;;;;;;;;;;7.92;100.00;99902.41;5013179;28;20016;-74
2023/03/02 10:41:05;;;;;;;;;;;;;;;8.00;100.00;99900.03;5029882;28;19964;-74
2023/03/02 10:43:45;;;;;;;;;;;;;;;8.06;100.00;99886.41;5029774;28;19931;-73
2023/03/02 10:46:11;;;;;;;;;;;;;;;8.19;100.00;99892.38;5024414;28;20001;-74
2023/03/02 10:48:47;;;;;;;;;;;;;;;8.32;100.00;99882.63;5027119;28;19921;-73
2023/03/02 10:51:20;;;;;;;;;;;;;;;8.36;100.00;99884.06;5026551;28;19925;-73
2023/03/02 10:53:45;;;;;;;;;;;;;;;8.42;100.00;99883.59;5025267;28;19936;-73
2023/03/02 10:56:31;;;;;;;;;;;;;;;8.48;100.00;99883.06;5031966;28;19921;-73
2023/03/02 10:59:02;;;;;;;;;;;;;;;8.45;100.00;99888.59;5026986;28;19925;-73
2023/03/02 11:01:30;;;;;;;;;;;;;;;8.59;100.00;99875.19;5029824;28;20272;-73
2023/03/02 11:04:00;;;;;;;;;;;;;;;8.60;100.00;99879.47;5027083;28;19964;-74
2023/03/02 11:06:26;;;;;;;;;;;;;;;8.62;100.00;99880.19;5030414;28;19928;-73
2023/03/02 11:09:02;;;;;;;;;;;;;;;8.76;100.00;99883.50;5028683;28;19972;-74
2023/03/02 11:11:28;;;;;;;;;;;;;;;8.91;100.00;99879.63;5027315;28;19921;-74
2023/03/02 11:13:55;;;;;;;;;;;;;;;8.96;100.00;99882.72;5029516;28;19929;-74
2023/03/02 11:16:27;;;;;;;;;;;;;;;8.91;100.00;99885.75;5032396;28;20266;-74
2023/03/02 11:19:14;;;;;;;;;;;;;;;9.07;100.00;99887.16;5029928;28;19925;-72
2023/03/02 11:21:57;;;;;;;;;;;;;;;9.08;100.00;99881.72;5024677;28;20301;-74
2023/03/02 11:24:22;;;;;;;;;;;;;;;9.05;100.00;99887.25;5022146;28;20328;-74
2023/03/02 11:27:21;;;;;;;;;;;;;;;9.07;100.00;99890.63;5023372;28;19922;-74
2023/03/02 11:29:54;;;;;;;;;;;;;;;9.04;100.00;99875.06;4966158;28;19921;-74
2023/03/02 11:32:37;;;;;;;;;;;;;;;9.08;100.00;99875.63;5026024;28;19972;-74
2023/03/02 11:35:13;;;;;;;;;;;;;;;9.08;100.00;99865.94;5023155;28;19921;-74
2023/03/02 11:37:43;;;;;;;;;;;;;;;9.13;100.00;99869.03;5021158;28;19933;-74
2023/03/02 11:40:16;;;;;;;;;;;;;;;9.10;100.00;99858.75;5027335;28;20393;-74
2023/03/02 11:42:45;;;;;;;;;;;;;;;9.20;100.00;99859.66;5020614;28;19964;-75
2023/03/02 11:45:13;;;;;;;;;;;;;;;9.26;100.00;99860.94;5020902;28;19924;-74
2023/03/02 11:47:44;;;;;;;;;;;;;;;9.19;100.00;99863.25;5019443;28;20369;-73
2023/03/02 11:50:11;;;;;;;;;;;;;;;9.16;100.00;99857.41;5027641;28;19925;-73
2023/03/02 11:52:37;;;;;;;;;;;;;;;9.12;100.00;99848.94;5007088;28;19921;-73
2023/03/02 11:55:15;;;;;;;;;;;;;;;9.04;100.00;99848.72;5027426;28;19925;-74
2023/03/02 11:58:00;;;;;;;;;;;;;;;9.01;100.00;99855.06;5024812;28;19921;-73
2023/03/02 12:00:35;;;;;;;;;;;;;;;8.99;100.00;99861.44;5024826;28;19921;-74
2023/03/02 12:03:15;;;;;;;;;;;;;;;9.00;100.00;99852.59;5028905;28;20007;-74
2023/03/02 12:06:01;;;;;;;;;;;;;;;9.08;100.00;99852.78;5024789;28;19921;-74
2023/03/02 12:08:35;;;;;;;;;;;;;;;9.18;100.00;99842.34;5024088;28;19921;-73
2023/03/02 12:11:02;;;;;;;;;;;;;;;9.27;100.00;99838.94;5027163;28;19917;-73
2023/03/02 12:13:29;;;;;;;;;;;;;;;9.33;100.00;99838.41;5024150;28;19927;-74
2023/03/02 12:15:57;;;;;;;;;;;;;;;9.37;100.00;99834.56;5026653;28;19917;-74
2023/03/02 12:18:23;;;;;;;;;;;;;;;9.40;100.00;99835.16;5023493;28;19925;-73
2023/03/02 12:21:01;;;;;;;;;;;;;;;9.39;100.00;99828.22;5025494;28;19928;-74
2023/03/02 12:23:26;;;;;;;;;;;;;;;9.35;100.00;99826.81;5020012;28;20016;-72
2023/03/02 12:26:03;;;;;;;;;;;;;;;9.37;100.00;99824.84;5024067;28;20020;-73
2023/03/02 12:28:36;;;;;;;;;;;;;;;9.33;100.00;99818.19;5019093;28;20396;-74
2023/03/02 12:31:03;;;;;;;;;;;;;;;9.31;100.00;99824.53;4674686;28;9999984;-73
2023/03/02 12:33:28;;;;;;;;;;;;;;;9.24;100.00;99824.25;5021219;28;20036;-73
2023/03/02 12:36:03;;;;;;;;;;;;;;;9.25;100.00;99820.63;5021428;28;19921;-72
2023/03/02 12:38:30;;;;;;;;;;;;;;;9.29;100.00;99816.78;5023667;28;19933;-74
2023/03/02 12:41:04;;;;;;;;;;;;;;;9.31;100.00;99814.84;5018553;28;19960;-74
2023/03/02 12:43:34;;;;;;;;;;;;;;;9.37;100.00;99819.59;5022297;28;19925;-74
2023/03/02 12:46:02;;;;;;;;;;;;;;;9.38;100.00;99805.47;5020512;28;19932;-74
2023/03/02 12:48:39;;;;;;;;;;;;;;;9.37;100.00;99806.44;5021892;28;19956;-74